createdAt,value
2022-11-03T00:00:20.704Z,0.00
2022-11-03T00:01:25.152Z,0.50
2022-11-03T00:02:29.244Z,0.00
2022-11-03T00:03:33.413Z,0.00
2022-11-03T00:04:37.713Z,0.00
2022-11-03T00:05:41.824Z,0.00
2022-11-03T00:06:46.093Z,0.00
2022-11-03T00:07:50.653Z,0.00
2022-11-03T00:08:54.489Z,0.00
2022-11-03T00:09:58.642Z,0.50
2022-11-03T00:11:02.849Z,0.00
2022-11-03T00:12:07.157Z,0.00
2022-11-03T00:13:11.368Z,0.00
2022-11-03T00:14:15.570Z,0.00
2022-11-03T00:15:19.881Z,0.00
2022-11-03T00:16:24.387Z,0.00
2022-11-03T00:17:28.619Z,0.00
2022-11-03T00:18:32.698Z,0.50
2022-11-03T00:19:37.008Z,0.00
2022-11-03T00:20:40.970Z,0.00
2022-11-03T00:21:44.916Z,0.00
2022-11-03T00:22:49.225Z,0.00
2022-11-03T00:23:53.114Z,0.00
2022-11-03T00:24:57.139Z,0.00
2022-11-03T00:26:01.124Z,0.00
2022-11-03T00:27:05.533Z,0.00
2022-11-03T00:28:09.433Z,0.00
2022-11-03T00:29:13.527Z,0.75
2022-11-03T00:30:17.841Z,0.50
2022-11-03T00:31:21.941Z,0.00
2022-11-03T00:32:25.845Z,0.00
2022-11-03T00:33:29.635Z,0.00
2022-11-03T00:34:33.554Z,0.00
2022-11-03T00:35:37.643Z,0.00
2022-11-03T00:36:41.533Z,0.00
2022-11-03T00:37:45.491Z,0.00
2022-11-03T00:38:49.645Z,0.00
2022-11-03T00:39:53.852Z,0.00
2022-11-03T00:40:59.065Z,0.00
2022-11-03T00:42:03.384Z,0.00
2022-11-03T00:43:08.129Z,0.00
2022-11-03T00:44:12.590Z,0.00
2022-11-03T00:45:16.722Z,0.00
2022-11-03T00:46:21.125Z,0.00
2022-11-03T00:47:25.243Z,0.00
2022-11-03T00:48:29.437Z,0.00
2022-11-03T00:49:33.471Z,0.00
2022-11-03T00:50:37.450Z,0.00
2022-11-03T00:51:41.669Z,0.00
2022-11-03T00:52:45.950Z,0.00
2022-11-03T00:53:50.160Z,0.00
2022-11-03T00:54:55.325Z,0.50
2022-11-03T00:55:59.909Z,0.50
2022-11-03T00:57:04.110Z,0.00
2022-11-03T00:58:08.208Z,0.00
2022-11-03T00:59:12.416Z,0.00
2022-11-03T01:00:16.623Z,0.00
2022-11-03T01:01:20.858Z,0.00
2022-11-03T01:02:24.980Z,0.00
2022-11-03T01:03:29.040Z,0.00
2022-11-03T01:04:33.173Z,0.00
2022-11-03T01:05:37.043Z,0.00
2022-11-03T01:06:41.034Z,0.00
2022-11-03T01:07:44.935Z,0.00
2022-11-03T01:08:48.948Z,0.00
2022-11-03T01:09:52.940Z,0.00
2022-11-03T01:10:57.144Z,0.00
2022-11-03T01:12:01.253Z,0.00
2022-11-03T01:13:05.789Z,0.00
2022-11-03T01:14:09.870Z,0.00
2022-11-03T01:15:14.001Z,0.00
2022-11-03T01:16:18.381Z,0.00
2022-11-03T01:17:22.788Z,0.00
2022-11-03T01:18:27.198Z,0.00
2022-11-03T01:19:31.539Z,0.00
2022-11-03T01:20:35.404Z,0.00
2022-11-03T01:21:39.446Z,0.00
2022-11-03T01:22:43.358Z,0.00
2022-11-03T01:23:47.724Z,0.00
2022-11-03T01:24:52.233Z,0.00
2022-11-03T01:25:56.547Z,0.00
2022-11-03T01:27:01.052Z,0.00
2022-11-03T01:29:09.361Z,0.00
2022-11-03T01:30:13.872Z,0.00
2022-11-03T01:31:18.183Z,0.00
2022-11-03T01:32:22.495Z,0.00
2022-11-03T01:33:26.898Z,0.00
2022-11-03T01:34:30.689Z,0.00
2022-11-03T01:35:34.910Z,0.00
2022-11-03T01:36:39.129Z,0.00
2022-11-03T01:37:43.316Z,0.00
2022-11-03T01:38:47.729Z,0.00
2022-11-03T01:39:52.241Z,0.00
2022-11-03T01:40:56.759Z,0.00
2022-11-03T01:42:01.092Z,0.00
2022-11-03T01:43:05.634Z,0.00
2022-11-03T01:44:10.392Z,0.00
2022-11-03T01:45:14.809Z,0.00
2022-11-03T01:46:18.992Z,0.00
2022-11-03T01:47:22.973Z,0.00
2022-11-03T01:48:27.222Z,0.00
2022-11-03T01:49:31.114Z,0.00
2022-11-03T01:50:35.221Z,0.00
2022-11-03T01:51:39.326Z,0.00
2022-11-03T01:52:43.222Z,0.00
2022-11-03T01:53:47.323Z,0.00
2022-11-03T01:54:51.241Z,0.00
2022-11-03T01:55:55.286Z,0.00
2022-11-03T01:56:59.426Z,0.00
2022-11-03T01:58:03.533Z,0.00
2022-11-03T01:59:07.741Z,0.00
2022-11-03T02:00:11.742Z,0.00
2022-11-03T02:01:15.777Z,0.25
2022-11-03T02:02:20.005Z,0.00
2022-11-03T02:03:24.055Z,0.00
2022-11-03T02:04:28.159Z,0.00
2022-11-03T02:05:32.251Z,0.00
2022-11-03T02:06:36.175Z,0.00
2022-11-03T02:07:39.968Z,0.00
2022-11-03T02:08:44.263Z,0.00
2022-11-03T02:09:48.469Z,0.00
2022-11-03T02:10:52.670Z,0.00
2022-11-03T02:11:56.675Z,0.00
2022-11-03T02:13:00.746Z,0.00
2022-11-03T02:14:04.694Z,0.00
2022-11-03T02:15:08.701Z,0.00
2022-11-03T02:16:12.536Z,0.00
2022-11-03T02:17:16.380Z,0.50
2022-11-03T02:18:20.267Z,0.00
2022-11-03T02:19:24.268Z,0.00
2022-11-03T02:20:28.372Z,0.00
2022-11-03T02:21:32.381Z,0.00
2022-11-03T02:22:36.272Z,0.00
2022-11-03T02:23:40.477Z,0.00
2022-11-03T02:24:47.497Z,0.00
2022-11-03T02:25:49.502Z,0.00
2022-11-03T02:26:53.613Z,0.00
2022-11-03T02:27:58.033Z,0.00
2022-11-03T02:29:02.333Z,0.00
2022-11-03T02:30:06.781Z,0.50
2022-11-03T02:31:11.045Z,0.25
2022-11-03T02:32:15.249Z,0.00
2022-11-03T02:33:19.487Z,0.00
2022-11-03T02:34:23.464Z,0.00
2022-11-03T02:35:27.778Z,0.00
2022-11-03T02:36:32.074Z,0.00
2022-11-03T02:37:36.390Z,0.00
2022-11-03T02:38:40.386Z,0.00
2022-11-03T02:39:44.596Z,0.00
2022-11-03T02:40:48.695Z,0.00
2022-11-03T02:41:52.613Z,0.00
2022-11-03T02:42:56.630Z,0.00
2022-11-03T02:44:00.902Z,0.00
2022-11-03T02:45:05.012Z,0.00
2022-11-03T02:46:09.108Z,0.00
2022-11-03T02:47:13.013Z,0.00
2022-11-03T02:48:17.113Z,0.00
2022-11-03T02:49:21.073Z,0.00
2022-11-03T02:50:25.056Z,0.00
2022-11-03T02:51:29.219Z,0.00
2022-11-03T02:52:33.249Z,0.00
2022-11-03T02:53:37.223Z,0.00
2022-11-03T02:54:41.217Z,0.00
2022-11-03T02:55:45.389Z,0.00
2022-11-03T02:56:49.739Z,0.00
2022-11-03T02:57:53.833Z,0.00
2022-11-03T02:58:57.940Z,0.00
2022-11-03T03:00:02.103Z,0.00
2022-11-03T03:01:06.019Z,0.00
2022-11-03T03:02:10.235Z,0.00
2022-11-03T03:03:14.618Z,0.25
2022-11-03T03:04:18.769Z,1.00
2022-11-03T03:05:22.666Z,0.00
2022-11-03T03:06:26.868Z,0.50
2022-11-03T03:07:30.791Z,0.50
2022-11-03T03:08:34.778Z,0.00
2022-11-03T03:09:38.768Z,0.00
2022-11-03T03:10:42.668Z,0.00
2022-11-03T03:11:46.980Z,0.00
2022-11-03T03:12:51.102Z,0.00
2022-11-03T03:13:55.285Z,0.00
2022-11-03T03:14:59.397Z,0.00
2022-11-03T03:16:03.725Z,0.00
2022-11-03T03:17:07.901Z,0.50
2022-11-03T03:18:12.000Z,0.25
2022-11-03T03:19:16.501Z,0.00
2022-11-03T03:20:20.621Z,0.00
2022-11-03T03:21:24.827Z,0.00
2022-11-03T03:22:29.041Z,0.00
2022-11-03T03:23:33.144Z,0.00
2022-11-03T03:24:36.789Z,0.00
2022-11-03T03:25:40.602Z,0.00
2022-11-03T03:26:44.423Z,0.00
2022-11-03T03:27:48.517Z,0.00
2022-11-03T03:28:52.632Z,0.00
2022-11-03T03:29:56.410Z,0.00
2022-11-03T03:31:00.331Z,0.00
2022-11-03T03:32:04.190Z,0.00
2022-11-03T03:33:08.398Z,0.00
2022-11-03T03:34:31.275Z,0.00
2022-11-03T03:35:17.764Z,0.00
2022-11-03T03:36:21.786Z,0.00
2022-11-03T03:37:25.870Z,0.00
2022-11-03T03:38:29.870Z,0.00
2022-11-03T03:39:33.874Z,0.00
2022-11-03T03:40:38.078Z,0.00
2022-11-03T03:41:41.977Z,0.00
2022-11-03T03:42:46.084Z,0.00
2022-11-03T03:43:50.076Z,0.00
2022-11-03T03:44:54.290Z,0.00
2022-11-03T03:45:58.454Z,0.00
2022-11-03T03:47:02.385Z,0.00
2022-11-03T03:48:06.474Z,0.00
2022-11-03T03:49:10.606Z,0.00
2022-11-03T03:50:14.346Z,0.00
2022-11-03T03:51:18.495Z,0.00
2022-11-03T03:52:22.394Z,0.00
2022-11-03T03:53:26.309Z,0.00
2022-11-03T03:54:29.876Z,0.00
2022-11-03T03:55:33.989Z,0.00
2022-11-03T03:56:38.087Z,0.00
2022-11-03T03:57:41.958Z,0.00
2022-11-03T03:58:46.014Z,0.00
2022-11-03T03:59:49.994Z,0.00
2022-11-03T04:00:54.078Z,0.00
2022-11-03T04:01:58.093Z,0.00
2022-11-03T04:03:02.080Z,0.00
2022-11-03T04:04:05.996Z,0.00
2022-11-03T04:05:09.891Z,0.00
2022-11-03T04:06:14.002Z,0.00
2022-11-03T04:07:17.998Z,0.00
2022-11-03T04:08:21.893Z,0.00
2022-11-03T04:09:25.698Z,0.00
2022-11-03T04:10:29.493Z,0.00
2022-11-03T04:11:33.310Z,0.00
2022-11-03T04:12:37.490Z,0.00
2022-11-03T04:13:41.505Z,0.00
2022-11-03T04:14:45.595Z,0.00
2022-11-03T04:15:50.106Z,0.00
2022-11-03T04:16:54.420Z,0.00
2022-11-03T04:17:58.753Z,0.00
2022-11-03T04:19:03.041Z,0.00
2022-11-03T04:20:07.373Z,0.00
2022-11-03T04:21:11.419Z,0.00
2022-11-03T04:22:15.238Z,0.00
2022-11-03T04:23:19.574Z,0.00
2022-11-03T04:24:23.862Z,0.00
2022-11-03T04:25:28.369Z,0.00
2022-11-03T04:26:32.372Z,0.00
2022-11-03T04:27:36.504Z,0.00
2022-11-03T04:28:40.375Z,0.00
2022-11-03T04:29:44.270Z,0.00
2022-11-03T04:30:48.303Z,0.00
2022-11-03T04:31:52.589Z,0.00
2022-11-03T04:32:56.790Z,0.00
2022-11-03T04:34:01.091Z,0.00
2022-11-03T04:35:05.104Z,0.00
2022-11-03T04:36:08.993Z,0.00
2022-11-03T04:37:15.042Z,0.00
2022-11-03T04:38:19.049Z,0.00
2022-11-03T04:39:23.050Z,0.00
2022-11-03T04:40:27.047Z,0.00
2022-11-03T04:41:31.050Z,0.00
2022-11-03T04:42:36.072Z,0.00
2022-11-03T04:43:40.281Z,0.00
2022-11-03T04:44:44.488Z,0.00
2022-11-03T04:45:48.397Z,0.00
2022-11-03T04:46:52.182Z,0.00
2022-11-03T04:47:56.056Z,0.00
2022-11-03T04:49:00.388Z,0.00
2022-11-03T04:50:04.492Z,0.00
2022-11-03T04:51:08.490Z,0.00
2022-11-03T04:52:12.594Z,0.00
2022-11-03T04:53:16.502Z,0.00
2022-11-03T04:54:20.493Z,0.00
2022-11-03T04:55:24.845Z,0.00
2022-11-03T04:56:28.703Z,0.00
2022-11-03T04:57:32.710Z,0.00
2022-11-03T04:58:36.712Z,0.00
2022-11-03T04:59:40.673Z,0.00
2022-11-03T05:00:44.671Z,0.00
2022-11-03T05:01:48.924Z,0.00
2022-11-03T05:02:56.073Z,0.00
2022-11-03T05:03:58.524Z,0.00
2022-11-03T05:05:02.552Z,0.00
2022-11-03T05:06:06.554Z,0.00
2022-11-03T05:07:10.557Z,0.00
2022-11-03T05:08:14.260Z,0.00
2022-11-03T05:09:18.158Z,0.00
2022-11-03T05:10:22.153Z,0.00
2022-11-03T05:11:26.151Z,0.00
2022-11-03T05:12:30.154Z,0.00
2022-11-03T05:13:34.458Z,0.00
2022-11-03T05:14:38.457Z,0.00
2022-11-03T05:15:42.786Z,0.00
2022-11-03T05:16:46.563Z,0.00
2022-11-03T05:17:50.730Z,0.00
2022-11-03T05:18:55.001Z,0.00
2022-11-03T05:19:59.026Z,0.00
2022-11-03T05:21:03.093Z,0.00
2022-11-03T05:22:07.292Z,0.00
2022-11-03T05:23:11.908Z,0.00
2022-11-03T05:25:20.111Z,0.00
2022-11-03T05:26:24.374Z,0.00
2022-11-03T05:27:28.224Z,0.00
2022-11-03T05:28:32.324Z,0.00
2022-11-03T05:29:36.230Z,0.00
2022-11-03T05:30:40.010Z,0.00
2022-11-03T05:31:43.699Z,0.00
2022-11-03T05:32:47.472Z,0.00
2022-11-03T05:33:51.413Z,0.00
2022-11-03T05:34:55.125Z,0.00
2022-11-03T05:35:58.970Z,0.00
2022-11-03T05:37:02.993Z,0.00
2022-11-03T05:38:07.387Z,0.00
2022-11-03T05:39:11.428Z,0.00
2022-11-03T05:40:15.333Z,0.00
2022-11-03T05:41:19.159Z,0.00
2022-11-03T05:42:23.009Z,0.00
2022-11-03T05:43:26.800Z,0.00
2022-11-03T05:44:30.912Z,0.00
2022-11-03T05:45:34.818Z,0.00
2022-11-03T05:46:38.703Z,0.00
2022-11-03T05:47:42.700Z,0.00
2022-11-03T05:48:46.644Z,0.00
2022-11-03T05:49:50.495Z,0.00
2022-11-03T05:50:54.601Z,0.00
2022-11-03T05:51:58.702Z,0.00
2022-11-03T05:53:02.715Z,0.00
2022-11-03T05:54:07.830Z,0.00
2022-11-03T05:55:11.538Z,0.00
2022-11-03T05:56:15.128Z,0.00
2022-11-03T05:57:18.946Z,0.00
2022-11-03T05:58:22.665Z,0.00
2022-11-03T05:59:26.384Z,0.00
2022-11-03T06:00:30.114Z,0.50
2022-11-03T06:01:34.008Z,0.50
2022-11-03T06:02:37.576Z,0.25
2022-11-03T06:03:41.039Z,0.50
2022-11-03T06:04:44.448Z,0.50
2022-11-03T06:05:48.288Z,0.00
2022-11-03T06:06:51.645Z,0.00
2022-11-03T06:07:55.305Z,0.00
2022-11-03T06:08:58.692Z,0.00
2022-11-03T06:10:02.536Z,0.00
2022-11-03T06:11:06.473Z,0.00
2022-11-03T06:12:10.214Z,0.00
2022-11-03T06:13:13.821Z,0.00
2022-11-03T06:14:20.010Z,0.00
2022-11-03T06:15:21.932Z,0.00
2022-11-03T06:16:25.581Z,0.00
2022-11-03T06:17:28.997Z,0.00
2022-11-03T06:18:32.670Z,0.00
2022-11-03T06:19:36.038Z,0.00
2022-11-03T06:20:39.477Z,0.00
2022-11-03T06:21:44.628Z,0.00
2022-11-03T06:22:47.694Z,0.00
2022-11-03T06:23:51.147Z,0.00
2022-11-03T06:24:54.616Z,0.00
2022-11-03T06:25:58.236Z,0.00
2022-11-03T06:27:02.011Z,0.00
2022-11-03T06:28:05.423Z,0.00
2022-11-03T06:29:09.070Z,0.00
2022-11-03T06:30:12.805Z,0.00
2022-11-03T06:31:17.684Z,0.00
2022-11-03T06:32:21.409Z,0.00
2022-11-03T06:33:24.929Z,0.00
2022-11-03T06:34:28.380Z,0.00
2022-11-03T06:35:31.834Z,0.00
2022-11-03T06:36:35.291Z,0.50
2022-11-03T06:37:38.621Z,0.50
2022-11-03T06:38:42.146Z,0.00
2022-11-03T06:39:45.589Z,0.00
2022-11-03T06:40:49.117Z,0.50
2022-11-03T06:41:52.925Z,0.25
2022-11-03T06:42:56.378Z,0.00
2022-11-03T06:43:59.944Z,0.00
2022-11-03T06:45:03.624Z,0.50
2022-11-03T06:46:07.517Z,0.25
2022-11-03T06:47:11.294Z,1.00
2022-11-03T06:48:14.676Z,0.75
2022-11-03T06:49:18.429Z,0.50
2022-11-03T06:50:21.963Z,0.25
2022-11-03T06:51:25.444Z,0.00
2022-11-03T06:52:28.882Z,0.50
2022-11-03T06:53:32.449Z,0.00
2022-11-03T06:54:35.807Z,0.00
2022-11-03T06:55:39.271Z,0.50
2022-11-03T06:56:42.818Z,0.75
2022-11-03T06:57:46.331Z,0.00
2022-11-03T06:58:50.256Z,0.00
2022-11-03T07:00:06.745Z,0.00
2022-11-03T07:01:03.064Z,0.00
2022-11-03T07:02:03.803Z,0.50
2022-11-03T07:03:07.886Z,0.00
2022-11-03T07:04:11.951Z,0.00
2022-11-03T07:05:15.627Z,1.00
2022-11-03T07:06:19.191Z,1.00
2022-11-03T07:07:22.776Z,0.25
2022-11-03T07:08:26.520Z,0.00
2022-11-03T07:09:30.119Z,0.00
2022-11-03T07:10:33.617Z,0.00
2022-11-03T07:11:37.426Z,0.00
2022-11-03T07:12:40.860Z,0.25
2022-11-03T07:13:44.264Z,0.25
2022-11-03T07:14:47.863Z,1.20
2022-11-03T07:15:51.662Z,1.50
2022-11-03T07:16:55.070Z,1.75
2022-11-03T07:17:58.529Z,0.50
2022-11-03T07:19:02.178Z,2.00
2022-11-03T07:20:05.939Z,1.50
2022-11-03T07:21:09.549Z,1.00
2022-11-03T07:22:13.074Z,0.50
2022-11-03T07:23:16.466Z,0.50
2022-11-03T07:24:20.333Z,0.50
2022-11-03T07:25:24.112Z,1.00
2022-11-03T07:26:27.836Z,1.00
2022-11-03T07:27:31.263Z,0.50
2022-11-03T07:28:34.713Z,1.75
2022-11-03T07:29:38.029Z,1.25
2022-11-03T07:30:41.471Z,1.50
2022-11-03T07:31:44.853Z,1.00
2022-11-03T07:32:48.218Z,2.00
2022-11-03T07:33:51.973Z,2.25
2022-11-03T07:34:55.387Z,2.50
2022-11-03T07:36:15.880Z,2.00
2022-11-03T07:37:03.682Z,1.00
2022-11-03T07:38:07.566Z,2.00
2022-11-03T07:39:11.254Z,1.75
2022-11-03T07:40:14.859Z,1.75
2022-11-03T07:41:18.411Z,1.50
2022-11-03T07:42:21.882Z,1.00
2022-11-03T07:43:25.240Z,2.50
2022-11-03T07:44:28.768Z,3.00
2022-11-03T07:45:32.171Z,3.25
2022-11-03T07:46:35.542Z,4.00
2022-11-03T07:47:39.071Z,3.25
2022-11-03T07:48:42.451Z,1.00
2022-11-03T07:49:45.943Z,1.50
2022-11-03T07:50:49.401Z,0.75
2022-11-03T07:51:52.970Z,0.25
2022-11-03T07:52:56.417Z,0.50
2022-11-03T07:53:59.972Z,1.50
2022-11-03T07:55:03.769Z,2.50
2022-11-03T07:56:07.494Z,3.25
2022-11-03T07:57:11.020Z,4.50
2022-11-03T07:58:14.553Z,2.50
2022-11-03T07:59:18.446Z,1.50
2022-11-03T08:00:22.248Z,1.50
2022-11-03T08:01:26.161Z,1.00
2022-11-03T08:02:29.749Z,1.25
2022-11-03T08:03:33.487Z,1.50
2022-11-03T08:04:36.900Z,1.50
2022-11-03T08:05:40.442Z,2.50
2022-11-03T08:06:43.907Z,3.00
2022-11-03T08:07:47.351Z,2.00
2022-11-03T08:08:50.858Z,1.50
2022-11-03T08:09:54.741Z,1.00
2022-11-03T08:10:58.408Z,0.25
2022-11-03T08:12:02.269Z,0.50
2022-11-03T08:13:06.336Z,0.75
2022-11-03T08:14:10.521Z,0.75
2022-11-03T08:15:13.983Z,0.50
2022-11-03T08:16:17.391Z,1.00
2022-11-03T08:17:21.183Z,1.50
2022-11-03T08:18:25.003Z,2.00
2022-11-03T08:19:28.363Z,0.50
2022-11-03T08:20:31.741Z,1.75
2022-11-03T08:21:35.337Z,1.75
2022-11-03T08:22:38.745Z,2.00
2022-11-03T08:23:46.115Z,2.50
2022-11-03T08:24:46.917Z,3.00
2022-11-03T08:25:50.421Z,3.50
2022-11-03T08:26:53.913Z,2.60
2022-11-03T08:27:57.379Z,3.00
2022-11-03T08:29:01.194Z,2.50
2022-11-03T08:30:05.066Z,3.50
2022-11-03T08:31:12.580Z,3.75
2022-11-03T08:32:13.855Z,3.75
2022-11-03T08:33:17.560Z,3.00
2022-11-03T08:34:21.053Z,2.00
2022-11-03T08:35:26.675Z,3.25
2022-11-03T08:36:29.516Z,3.00
2022-11-03T08:37:33.311Z,3.00
2022-11-03T08:38:36.984Z,2.25
2022-11-03T08:39:40.479Z,2.00
2022-11-03T08:40:44.039Z,1.50
2022-11-03T08:41:47.513Z,1.50
2022-11-03T08:42:51.372Z,3.50
2022-11-03T08:43:55.063Z,4.50
2022-11-03T08:44:58.776Z,3.75
2022-11-03T08:46:09.606Z,4.00
2022-11-03T08:47:07.271Z,3.50
2022-11-03T08:48:11.059Z,2.25
2022-11-03T08:49:14.793Z,3.00
2022-11-03T08:50:18.588Z,2.50
2022-11-03T08:51:22.205Z,1.75
2022-11-03T08:52:25.823Z,3.00
2022-11-03T08:53:29.522Z,3.50
2022-11-03T08:54:33.238Z,2.50
2022-11-03T08:55:37.113Z,2.50
2022-11-03T08:56:40.569Z,4.00
2022-11-03T08:57:44.052Z,2.50
2022-11-03T08:58:47.561Z,2.00
2022-11-03T08:59:50.905Z,1.50
2022-11-03T09:00:54.732Z,1.50
2022-11-03T09:01:58.199Z,1.00
2022-11-03T09:03:01.934Z,1.40
2022-11-03T09:04:05.806Z,2.25
2022-11-03T09:05:09.344Z,3.00
2022-11-03T09:06:12.893Z,3.00
2022-11-03T09:07:16.563Z,2.00
2022-11-03T09:10:33.231Z,4.00
2022-11-03T09:11:34.019Z,4.00
2022-11-03T09:12:37.424Z,3.00
2022-11-03T09:13:41.109Z,2.00
2022-11-03T09:14:44.643Z,2.50
2022-11-03T09:15:48.245Z,3.00
2022-11-03T09:16:51.687Z,4.00
2022-11-03T09:17:55.142Z,2.80
2022-11-03T09:18:58.546Z,2.75
2022-11-03T09:20:02.083Z,4.00
2022-11-03T09:21:05.554Z,4.00
2022-11-03T09:22:09.265Z,3.50
2022-11-03T09:23:12.630Z,2.50
2022-11-03T09:24:16.282Z,2.50
2022-11-03T09:25:19.743Z,1.50
2022-11-03T09:26:23.373Z,1.75
2022-11-03T09:27:26.990Z,2.00
2022-11-03T09:28:30.766Z,1.50
2022-11-03T09:29:58.524Z,2.50
2022-11-03T09:30:39.169Z,2.50
2022-11-03T09:31:42.781Z,1.75
2022-11-03T09:32:46.389Z,2.00
2022-11-03T09:33:49.871Z,1.50
2022-11-03T09:34:53.338Z,0.75
2022-11-03T09:35:56.927Z,2.00
2022-11-03T09:37:00.396Z,0.50
2022-11-03T09:38:03.993Z,1.50
2022-11-03T09:39:07.567Z,3.00
2022-11-03T09:40:11.042Z,3.00
2022-11-03T09:41:26.015Z,2.00
2022-11-03T09:42:19.320Z,1.25
2022-11-03T09:43:22.958Z,1.50
2022-11-03T09:44:26.480Z,1.00
2022-11-03T09:45:29.955Z,1.00
2022-11-03T09:46:33.434Z,1.75
2022-11-03T09:47:36.890Z,2.00
2022-11-03T09:48:40.444Z,1.50
2022-11-03T09:49:43.984Z,2.50
2022-11-03T09:50:47.441Z,2.75
2022-11-03T09:51:50.861Z,2.50
2022-11-03T09:52:54.465Z,2.25
2022-11-03T09:53:57.996Z,0.75
2022-11-03T09:55:01.529Z,1.00
2022-11-03T09:56:04.913Z,1.00
2022-11-03T09:57:08.372Z,1.50
2022-11-03T09:58:11.967Z,1.00
2022-11-03T09:59:15.581Z,1.50
2022-11-03T10:00:19.050Z,3.00
2022-11-03T10:01:22.884Z,2.50
2022-11-03T10:02:26.461Z,0.75
2022-11-03T10:03:29.955Z,1.00
2022-11-03T10:04:33.413Z,1.75
2022-11-03T10:05:36.958Z,1.50
2022-11-03T10:06:40.401Z,1.00
2022-11-03T10:07:43.853Z,1.50
2022-11-03T10:08:47.373Z,1.00
2022-11-03T10:09:50.843Z,1.00
2022-11-03T10:10:54.389Z,1.50
2022-11-03T10:11:57.786Z,1.00
2022-11-03T10:13:01.328Z,0.00
2022-11-03T10:14:04.734Z,0.00
2022-11-03T10:15:08.233Z,1.00
2022-11-03T10:16:11.882Z,1.50
2022-11-03T10:17:15.375Z,1.00
2022-11-03T10:18:18.864Z,0.75
2022-11-03T10:19:22.343Z,1.00
2022-11-03T10:20:25.833Z,1.50
2022-11-03T10:21:29.385Z,0.50
2022-11-03T10:22:34.962Z,0.50
2022-11-03T10:23:37.619Z,1.00
2022-11-03T10:24:41.083Z,0.50
2022-11-03T10:25:44.569Z,0.25
2022-11-03T10:26:48.139Z,0.25
2022-11-03T10:27:51.643Z,0.00
2022-11-03T10:28:55.155Z,0.00
2022-11-03T10:29:58.844Z,0.50
2022-11-03T10:31:11.307Z,1.00
2022-11-03T10:32:07.339Z,1.00
2022-11-03T10:33:10.952Z,1.00
2022-11-03T10:34:14.412Z,0.50
2022-11-03T10:35:17.956Z,1.00
2022-11-03T10:36:21.430Z,0.25
2022-11-03T10:37:24.813Z,0.00
2022-11-03T10:38:28.381Z,0.25
2022-11-03T10:39:31.959Z,0.00
2022-11-03T10:40:47.922Z,0.00
2022-11-03T10:41:40.391Z,1.00
2022-11-03T10:42:43.879Z,0.25
2022-11-03T10:43:47.341Z,0.00
2022-11-03T10:44:50.958Z,0.00
2022-11-03T10:45:54.506Z,0.00
2022-11-03T10:46:58.062Z,0.75
2022-11-03T10:48:01.931Z,0.75
2022-11-03T10:49:05.478Z,0.00
2022-11-03T10:50:09.060Z,0.25
2022-11-03T10:51:12.614Z,0.00
2022-11-03T10:52:16.182Z,0.00
2022-11-03T10:53:19.832Z,0.00
2022-11-03T10:54:23.505Z,0.00
2022-11-03T10:55:27.046Z,0.00
2022-11-03T10:56:30.638Z,0.00
2022-11-03T10:57:34.067Z,0.00
2022-11-03T10:58:37.492Z,0.00
2022-11-03T10:59:40.980Z,0.00
2022-11-03T11:00:44.571Z,0.50
2022-11-03T11:01:48.215Z,0.50
2022-11-03T11:02:51.777Z,1.50
2022-11-03T11:03:55.365Z,0.50
2022-11-03T11:04:59.073Z,1.75
2022-11-03T11:06:02.537Z,1.00
2022-11-03T11:07:06.091Z,0.50
2022-11-03T11:08:09.743Z,1.00
2022-11-03T11:09:13.386Z,0.50
2022-11-03T11:10:17.095Z,1.00
2022-11-03T11:11:20.780Z,1.00
2022-11-03T11:12:24.341Z,0.50
2022-11-03T11:13:28.005Z,0.25
2022-11-03T11:14:31.563Z,0.00
2022-11-03T11:15:34.988Z,0.75
2022-11-03T11:16:38.460Z,1.25
2022-11-03T11:17:42.031Z,1.50
2022-11-03T11:18:45.582Z,3.00
2022-11-03T11:19:49.211Z,2.50
2022-11-03T11:20:52.674Z,1.25
2022-11-03T11:21:56.239Z,0.50
2022-11-03T11:22:59.726Z,0.75
2022-11-03T11:24:03.272Z,1.00
2022-11-03T11:25:11.827Z,0.50
2022-11-03T11:26:15.390Z,0.50
2022-11-03T11:27:18.950Z,1.50
2022-11-03T11:28:22.504Z,1.50
2022-11-03T11:29:26.121Z,0.50
2022-11-03T11:30:29.663Z,1.00
2022-11-03T11:31:33.230Z,1.00
2022-11-03T11:32:36.686Z,-0.25
2022-11-03T11:33:40.295Z,0.00
2022-11-03T11:34:43.760Z,0.00
2022-11-03T11:35:47.393Z,0.50
2022-11-03T11:36:50.968Z,0.00
2022-11-03T11:37:54.448Z,0.00
2022-11-03T11:38:57.995Z,0.50
2022-11-03T11:40:01.614Z,0.00
2022-11-03T11:41:05.232Z,0.50
2022-11-03T11:42:08.933Z,0.50
2022-11-03T11:43:12.572Z,0.00
2022-11-03T11:44:15.963Z,0.00
2022-11-03T11:45:19.534Z,0.50
2022-11-03T11:46:22.973Z,0.00
2022-11-03T11:47:26.438Z,0.00
2022-11-03T11:48:29.945Z,0.00
2022-11-03T11:49:33.409Z,0.50
2022-11-03T11:50:37.045Z,0.00
2022-11-03T11:51:40.519Z,0.50
2022-11-03T11:52:44.112Z,0.50
2022-11-03T11:53:50.950Z,0.50
2022-11-03T11:54:52.413Z,1.75
2022-11-03T11:55:56.213Z,1.50
2022-11-03T11:56:59.995Z,1.00
2022-11-03T11:58:03.580Z,1.00
2022-11-03T11:59:07.465Z,1.00
2022-11-03T12:00:11.239Z,0.25
2022-11-03T12:01:15.054Z,0.50
2022-11-03T12:02:18.786Z,0.50
2022-11-03T12:03:22.547Z,0.50
2022-11-03T12:04:26.161Z,0.00
2022-11-03T12:05:30.047Z,2.00
2022-11-03T12:06:33.567Z,1.50
2022-11-03T12:07:37.491Z,1.00
2022-11-03T12:08:41.013Z,1.00
2022-11-03T12:09:44.566Z,1.00
2022-11-03T12:10:48.128Z,1.00
2022-11-03T12:11:55.356Z,2.50
2022-11-03T12:12:56.534Z,2.50
2022-11-03T12:14:00.250Z,1.50
2022-11-03T12:15:03.798Z,2.50
2022-11-03T12:16:07.745Z,2.75
2022-11-03T12:17:11.509Z,1.75
2022-11-03T12:18:15.167Z,1.50
2022-11-03T12:19:18.973Z,0.50
2022-11-03T12:20:22.765Z,0.25
2022-11-03T12:21:26.223Z,0.50
2022-11-03T12:22:29.948Z,0.00
2022-11-03T12:23:33.315Z,0.75
2022-11-03T12:24:36.689Z,1.00
2022-11-03T12:25:40.165Z,1.00
2022-11-03T12:26:43.631Z,0.75
2022-11-03T12:27:47.101Z,0.50
2022-11-03T12:28:50.593Z,1.00
2022-11-03T12:29:54.023Z,0.50
2022-11-03T12:30:57.581Z,0.40
2022-11-03T12:32:01.092Z,0.50
2022-11-03T12:33:04.770Z,0.75
2022-11-03T12:34:08.652Z,0.50
2022-11-03T12:35:12.110Z,0.50
2022-11-03T12:36:15.686Z,1.00
2022-11-03T12:37:19.318Z,0.75
2022-11-03T12:38:22.809Z,0.00
2022-11-03T12:39:26.325Z,0.75
2022-11-03T12:40:30.114Z,0.25
2022-11-03T12:41:33.921Z,0.25
2022-11-03T12:42:37.711Z,0.00
2022-11-03T12:43:41.480Z,0.50
2022-11-03T12:44:44.959Z,0.50
2022-11-03T12:45:48.512Z,0.00
2022-11-03T12:46:51.894Z,0.50
2022-11-03T12:47:55.626Z,0.25
2022-11-03T12:48:59.434Z,0.25
2022-11-03T12:50:03.042Z,1.00
2022-11-03T12:51:06.639Z,0.50
2022-11-03T12:52:10.412Z,0.50
2022-11-03T12:53:14.121Z,1.00
2022-11-03T12:54:17.734Z,1.00
2022-11-03T12:55:21.358Z,1.00
2022-11-03T12:56:24.975Z,1.00
2022-11-03T12:57:28.435Z,0.75
2022-11-03T12:58:31.912Z,0.50
2022-11-03T12:59:35.430Z,1.00
2022-11-03T13:00:38.917Z,0.75
2022-11-03T13:01:42.552Z,1.00
2022-11-03T13:02:46.117Z,1.00
2022-11-03T13:03:49.723Z,0.00
2022-11-03T13:04:53.174Z,0.00
2022-11-03T13:05:56.626Z,0.00
2022-11-03T13:07:00.115Z,0.50
2022-11-03T13:08:03.740Z,0.75
2022-11-03T13:09:07.349Z,1.25
2022-11-03T13:10:10.780Z,0.80
2022-11-03T13:11:14.391Z,0.25
2022-11-03T13:12:18.152Z,0.00
2022-11-03T13:13:21.932Z,0.50
2022-11-03T13:14:25.581Z,0.25
2022-11-03T13:15:29.298Z,0.50
2022-11-03T13:16:33.103Z,0.00
2022-11-03T13:17:52.420Z,0.00
2022-11-03T13:18:41.513Z,0.00
2022-11-03T13:19:45.207Z,0.00
2022-11-03T13:20:48.720Z,0.00
2022-11-03T13:21:52.324Z,0.00
2022-11-03T13:22:56.012Z,0.50
2022-11-03T13:24:00.014Z,0.25
2022-11-03T13:25:03.840Z,0.00
2022-11-03T13:26:07.625Z,0.00
2022-11-03T13:27:11.421Z,0.50
2022-11-03T13:28:15.171Z,0.00
2022-11-03T13:29:19.017Z,0.50
2022-11-03T13:30:22.745Z,0.50
2022-11-03T13:31:26.415Z,0.50
2022-11-03T13:32:30.173Z,0.50
2022-11-03T13:33:33.995Z,0.50
2022-11-03T13:34:37.818Z,1.00
2022-11-03T13:35:41.760Z,1.00
2022-11-03T13:36:45.310Z,0.00
2022-11-03T13:37:48.989Z,0.25
2022-11-03T13:38:52.405Z,0.50
2022-11-03T13:39:56.090Z,0.00
2022-11-03T13:41:05.232Z,0.50
2022-11-03T13:42:04.639Z,0.75
2022-11-03T13:43:08.529Z,0.75
2022-11-03T13:44:12.633Z,0.00
2022-11-03T13:45:16.302Z,0.50
2022-11-03T13:46:20.130Z,0.00
2022-11-03T13:47:34.339Z,0.00
2022-11-03T13:49:59.870Z,0.50
2022-11-03T13:50:38.662Z,0.00
2022-11-03T13:51:42.367Z,0.50
2022-11-03T13:52:46.159Z,0.50
2022-11-03T13:56:03.178Z,0.00
2022-11-03T13:59:29.017Z,0.50
2022-11-03T14:00:19.013Z,0.00
2022-11-03T14:01:23.097Z,0.00
2022-11-03T14:04:44.118Z,0.50
2022-11-03T14:05:41.633Z,0.50
2022-11-03T14:06:45.116Z,0.50
2022-11-03T14:07:48.626Z,0.75
2022-11-03T14:08:52.052Z,0.50
2022-11-03T14:09:56.935Z,0.75
2022-11-03T14:11:00.680Z,0.50
2022-11-03T14:12:04.595Z,0.00
2022-11-03T14:13:08.743Z,0.50
2022-11-03T14:14:12.993Z,0.00
2022-11-03T14:15:16.727Z,0.50
2022-11-03T14:16:20.554Z,1.00
2022-11-03T14:17:24.313Z,0.25
2022-11-03T14:18:28.054Z,0.50
2022-11-03T14:19:39.420Z,0.00
2022-11-03T14:20:36.524Z,0.00
2022-11-03T14:21:40.205Z,0.25